Bonito de Santa Fe, Brazil
Current Conditions -  °F | °C
As of 2:00 AM on Wednesday 26 Nov 2014 (Local Time) from SBJU Reporting Station
Broken Clouds Broken Clouds  
Wind Chill: 81°   Ceiling: 8000
Heat Index: 87°   Visibility: 6mi
Dew Point: 77°   Wind: 3mph
Humidity: 89%   Direction: 100°E
Pressure: 29.94"   Gusts: NA
Location:  7.31°S, 38.51°W
Report Text: SBJU 260500Z 10003KT 9999 SCT017 BKN080 27/25 Q1014
Loading
Personal Weather Stations






























Interactive Weather Map New forecast layout! Learn more

10-Day Weather Forecast

Advertisements
Track Severe Weather on mobile